EZY54EG EGKK-EDDL
Flight info
| Callsign | EZY54EG |
|---|---|
| Flight time | N/A |
| Altitude | 23000 |
| Route | DVR L9 KONAN/N0449F330 DCT KOK UL607 SPI Y862 KENUM M170 NVO T857 BIKMU BIKMU1A |
| Aircraft | A319/M-SDE3FGHIRWY/LB1 |
Departure
| Time | 2026-05-04 19:02 |
|---|---|
| Airport | London Gatwick Airport (EGKK) |
Arrival
| Time | N/A |
|---|---|
| Airport | Düsseldorf Airport (EDDL) |
| Time | Latitude | Longitude | Altitude | Speed | Heading |
|---|---|---|---|---|---|
| 2026-05-04 18:33 | 51.15994 | -0.17986 | 213 ft | 0 kts | 78° |
| 2026-05-04 18:44 | 51.15994 | -0.17987 | 204 ft | 1 kts | 78° |
| 2026-05-04 18:45 | 51.15991 | -0.18009 | 215 ft | 3 kts | 78° |
| 2026-05-04 18:45 | 51.15986 | -0.18040 | 214 ft | 3 kts | 78° |
| 2026-05-04 18:45 | 51.15982 | -0.18071 | 215 ft | 3 kts | 80° |
| 2026-05-04 18:45 | 51.15981 | -0.18102 | 215 ft | 3 kts | 105° |
| 2026-05-04 18:46 | 51.15988 | -0.18126 | 212 ft | 3 kts | 152° |
| 2026-05-04 18:46 | 51.15998 | -0.18132 | 214 ft | 2 kts | 168° |
| 2026-05-04 18:46 | 51.16011 | -0.18137 | 212 ft | 1 kts | 168° |
| 2026-05-04 18:46 | 51.16012 | -0.18137 | 212 ft | 0 kts | 168° |
| 2026-05-04 18:48 | 51.16005 | -0.18135 | 213 ft | 4 kts | 168° |
| 2026-05-04 18:48 | 51.15954 | -0.18117 | 214 ft | 9 kts | 168° |
| 2026-05-04 18:48 | 51.15892 | -0.18096 | 204 ft | 10 kts | 168° |
| 2026-05-04 18:49 | 51.15824 | -0.18072 | 204 ft | 10 kts | 168° |
| 2026-05-04 18:49 | 51.15764 | -0.18051 | 204 ft | 0 kts | 167° |
| 2026-05-04 18:50 | 51.15763 | -0.18051 | 204 ft | 1 kts | 167° |
| 2026-05-04 18:50 | 51.15740 | -0.18043 | 209 ft | 7 kts | 167° |
| 2026-05-04 18:50 | 51.15689 | -0.18058 | 212 ft | 8 kts | 231° |
| 2026-05-04 18:51 | 51.15672 | -0.18154 | 209 ft | 11 kts | 257° |
| 2026-05-04 18:51 | 51.15653 | -0.18290 | 208 ft | 13 kts | 257° |
| 2026-05-04 18:51 | 51.15585 | -0.18346 | 204 ft | 13 kts | 166° |
| 2026-05-04 18:51 | 51.15494 | -0.18310 | 206 ft | 14 kts | 166° |
| 2026-05-04 18:52 | 51.15397 | -0.18279 | 204 ft | 15 kts | 168° |
| 2026-05-04 18:52 | 51.15298 | -0.18244 | 208 ft | 12 kts | 167° |
| 2026-05-04 18:52 | 51.15279 | -0.18238 | 204 ft | 1 kts | 167° |
| 2026-05-04 18:52 | 51.15262 | -0.18231 | 209 ft | 6 kts | 167° |
| 2026-05-04 18:53 | 51.15199 | -0.18228 | 204 ft | 10 kts | 215° |
| 2026-05-04 18:53 | 51.15184 | -0.18342 | 204 ft | 11 kts | 264° |
| 2026-05-04 18:53 | 51.15172 | -0.18424 | 214 ft | 12 kts | 256° |
| 2026-05-04 18:53 | 51.15151 | -0.18579 | 204 ft | 17 kts | 257° |
| 2026-05-04 18:54 | 51.15125 | -0.18765 | 210 ft | 18 kts | 257° |
| 2026-05-04 18:54 | 51.15098 | -0.18957 | 208 ft | 18 kts | 257° |
| 2026-05-04 18:54 | 51.15070 | -0.19166 | 213 ft | 20 kts | 258° |
| 2026-05-04 18:54 | 51.15041 | -0.19385 | 208 ft | 20 kts | 258° |
| 2026-05-04 18:55 | 51.15010 | -0.19607 | 209 ft | 21 kts | 257° |
| 2026-05-04 18:55 | 51.14945 | -0.20069 | 207 ft | 22 kts | 257° |
| 2026-05-04 18:55 | 51.14916 | -0.20280 | 203 ft | 16 kts | 257° |
| 2026-05-04 18:56 | 51.14891 | -0.20458 | 206 ft | 17 kts | 257° |
| 2026-05-04 18:56 | 51.14866 | -0.20644 | 210 ft | 17 kts | 257° |
| 2026-05-04 18:56 | 51.14839 | -0.20839 | 213 ft | 20 kts | 257° |
| 2026-05-04 18:56 | 51.14807 | -0.21064 | 208 ft | 21 kts | 257° |
| 2026-05-04 18:57 | 51.14771 | -0.21267 | 204 ft | 16 kts | 257° |
| 2026-05-04 18:57 | 51.14740 | -0.21398 | 208 ft | 11 kts | 217° |
| 2026-05-04 18:57 | 51.14677 | -0.21380 | 208 ft | 8 kts | 142° |
| 2026-05-04 18:57 | 51.14670 | -0.21369 | 205 ft | 0 kts | 137° |
| 2026-05-04 18:59 | 51.14666 | -0.21363 | 212 ft | 3 kts | 137° |
| 2026-05-04 19:00 | 51.14645 | -0.21337 | 204 ft | 4 kts | 152° |
| 2026-05-04 19:00 | 51.14625 | -0.21329 | 204 ft | 0 kts | 167° |
| 2026-05-04 19:00 | 51.14624 | -0.21329 | 204 ft | 0 kts | 167° |
| 2026-05-04 19:00 | 51.14620 | -0.21327 | 204 ft | 2 kts | 167° |
| 2026-05-04 19:01 | 51.14574 | -0.21308 | 206 ft | 11 kts | 161° |
| 2026-05-04 19:01 | 51.14517 | -0.21177 | 202 ft | 17 kts | 85° |
| 2026-05-04 19:01 | 51.14524 | -0.21131 | 206 ft | 0 kts | 76° |
| 2026-05-04 19:02 | 51.14526 | -0.21119 | 214 ft | 8 kts | 76° |
| 2026-05-04 19:02 | 51.14599 | -0.20604 | 216 ft | 88 kts | 78° |
| 2026-05-04 19:02 | 51.14782 | -0.19280 | 207 ft | 153 kts | 77° |
| 2026-05-04 19:02 | 51.15028 | -0.17613 | 848 ft | 152 kts | 76° |
| 2026-05-04 19:03 | 51.15259 | -0.15977 | 1644 ft | 152 kts | 76° |
| 2026-05-04 19:03 | 51.15496 | -0.14227 | 2122 ft | 172 kts | 76° |
| 2026-05-04 19:03 | 51.15767 | -0.12233 | 2537 ft | 197 kts | 76° |
| 2026-05-04 19:03 | 51.16077 | -0.09967 | 3013 ft | 222 kts | 76° |
| 2026-05-04 19:04 | 51.16421 | -0.07441 | 3579 ft | 245 kts | 77° |
| 2026-05-04 19:04 | 51.16791 | -0.04706 | 4420 ft | 257 kts | 78° |
| 2026-05-04 19:04 | 51.16878 | -0.01826 | 5363 ft | 265 kts | 91° |
| 2026-05-04 19:04 | 51.16816 | 0.01154 | 5833 ft | 270 kts | 91° |
| 2026-05-04 19:05 | 51.16759 | 0.04151 | 5982 ft | 272 kts | 91° |
| 2026-05-04 19:05 | 51.16699 | 0.07158 | 6013 ft | 272 kts | 91° |
| 2026-05-04 19:05 | 51.16640 | 0.10169 | 6015 ft | 272 kts | 91° |
| 2026-05-04 19:05 | 51.16584 | 0.13203 | 6391 ft | 275 kts | 91° |
| 2026-05-04 19:06 | 51.16530 | 0.16258 | 7418 ft | 277 kts | 91° |
| 2026-05-04 19:06 | 51.16514 | 0.19355 | 8389 ft | 282 kts | 90° |
| 2026-05-04 19:06 | 51.16523 | 0.22498 | 9340 ft | 286 kts | 90° |
| 2026-05-04 19:06 | 51.16542 | 0.25695 | 10252 ft | 291 kts | 90° |
| 2026-05-04 19:07 | 51.16562 | 0.28939 | 11135 ft | 294 kts | 90° |
| 2026-05-04 19:07 | 51.16578 | 0.32211 | 12044 ft | 297 kts | 89° |
| 2026-05-04 19:07 | 51.16590 | 0.35511 | 12952 ft | 299 kts | 89° |
| 2026-05-04 19:07 | 51.16597 | 0.38835 | 13834 ft | 302 kts | 89° |
| 2026-05-04 19:08 | 51.16601 | 0.42190 | 14625 ft | 304 kts | 89° |
| 2026-05-04 19:08 | 51.16601 | 0.45583 | 15388 ft | 308 kts | 90° |
| 2026-05-04 19:08 | 51.16599 | 0.48981 | 16105 ft | 313 kts | 90° |
| 2026-05-04 19:08 | 51.16596 | 0.52607 | 16349 ft | 335 kts | 90° |
| 2026-05-04 19:09 | 51.16591 | 0.56448 | 16495 ft | 357 kts | 90° |
| 2026-05-04 19:09 | 51.16585 | 0.60503 | 16813 ft | 372 kts | 90° |
| 2026-05-04 19:09 | 51.16578 | 0.64666 | 17408 ft | 379 kts | 91° |
| 2026-05-04 19:09 | 51.16570 | 0.68894 | 18079 ft | 383 kts | 91° |
| 2026-05-04 19:10 | 51.16561 | 0.73106 | 18671 ft | 388 kts | 91° |
| 2026-05-04 19:10 | 51.16553 | 0.77423 | 19259 ft | 391 kts | 91° |
| 2026-05-04 19:10 | 51.16543 | 0.81836 | 19861 ft | 395 kts | 92° |
| 2026-05-04 19:10 | 51.16530 | 0.86180 | 20448 ft | 399 kts | 92° |
| 2026-05-04 19:11 | 51.16514 | 0.90624 | 21027 ft | 403 kts | 92° |
| 2026-05-04 19:11 | 51.16497 | 0.95121 | 21610 ft | 407 kts | 92° |
| 2026-05-04 19:11 | 51.16478 | 0.99653 | 22119 ft | 412 kts | 92° |
| 2026-05-04 19:11 | 51.16456 | 1.04236 | 22627 ft | 416 kts | 92° |
| 2026-05-04 19:12 | 51.16433 | 1.08867 | 22962 ft | 419 kts | 92° |
| 2026-05-04 19:12 | 51.16387 | 1.18165 | 23023 ft | 419 kts | 92° |
| 2026-05-04 19:12 | 51.16361 | 1.22808 | 23021 ft | 419 kts | 92° |
| 2026-05-04 19:13 | 51.16332 | 1.27449 | 23019 ft | 419 kts | 92° |
| 2026-05-04 19:13 | 51.16299 | 1.32094 | 23020 ft | 419 kts | 92° |
| 2026-05-04 19:13 | 51.16254 | 1.36735 | 23018 ft | 419 kts | 93° |
| 2026-05-04 19:13 | 51.16123 | 1.41369 | 23028 ft | 419 kts | 95° |
| 2026-05-04 19:14 | 51.15912 | 1.45998 | 23034 ft | 421 kts | 96° |
| 2026-05-04 19:14 | 51.15653 | 1.50660 | 23541 ft | 424 kts | 96° |
| 2026-05-04 19:14 | 51.15380 | 1.55362 | 23969 ft | 428 kts | 96° |
| 2026-05-04 19:14 | 51.15109 | 1.60101 | 24417 ft | 431 kts | 96° |
| 2026-05-04 19:15 | 51.14850 | 1.64864 | 24870 ft | 433 kts | 96° |
| 2026-05-04 19:15 | 51.14602 | 1.69661 | 25291 ft | 436 kts | 96° |
| 2026-05-04 19:15 | 51.14365 | 1.74486 | 25747 ft | 438 kts | 96° |
| 2026-05-04 19:15 | 51.14129 | 1.79345 | 26188 ft | 441 kts | 96° |
| 2026-05-04 19:16 | 51.13890 | 1.84223 | 26607 ft | 443 kts | 96° |
| 2026-05-04 19:16 | 51.13647 | 1.89126 | 27064 ft | 445 kts | 96° |
| 2026-05-04 19:16 | 51.13396 | 1.94049 | 27485 ft | 447 kts | 96° |
| 2026-05-04 19:16 | 51.13138 | 1.98992 | 27918 ft | 449 kts | 96° |
| 2026-05-04 19:17 | 51.12875 | 2.03953 | 28332 ft | 451 kts | 97° |
| 2026-05-04 19:17 | 51.12608 | 2.08939 | 28724 ft | 453 kts | 97° |
| 2026-05-04 19:17 | 51.12340 | 2.13948 | 29102 ft | 455 kts | 97° |
| 2026-05-04 19:17 | 51.12071 | 2.18983 | 29477 ft | 458 kts | 97° |
| 2026-05-04 19:18 | 51.11798 | 2.24040 | 29845 ft | 460 kts | 97° |
| 2026-05-04 19:18 | 51.11521 | 2.29122 | 30170 ft | 462 kts | 97° |
| 2026-05-04 19:18 | 51.11239 | 2.34230 | 30528 ft | 462 kts | 97° |
| 2026-05-04 19:18 | 51.10954 | 2.39320 | 30960 ft | 461 kts | 97° |
| 2026-05-04 19:19 | 51.10671 | 2.44321 | 31414 ft | 459 kts | 97° |
| 2026-05-04 19:19 | 51.10379 | 2.49451 | 31854 ft | 458 kts | 97° |
| 2026-05-04 19:19 | 51.10090 | 2.54490 | 32258 ft | 458 kts | 97° |
| 2026-05-04 19:19 | 51.09796 | 2.59534 | 32676 ft | 458 kts | 98° |
| 2026-05-04 19:20 | 51.09445 | 2.64566 | 32955 ft | 457 kts | 102° |
| 2026-05-04 19:20 | 51.07863 | 2.74192 | 33002 ft | 451 kts | 109° |
| 2026-05-04 19:21 | 51.06119 | 2.83760 | 33000 ft | 450 kts | 109° |
| 2026-05-04 19:21 | 51.04365 | 2.93319 | 32998 ft | 451 kts | 109° |
| 2026-05-04 19:22 | 51.02609 | 3.02900 | 33003 ft | 451 kts | 109° |
| 2026-05-04 19:22 | 51.00853 | 3.12477 | 32991 ft | 451 kts | 109° |
| 2026-05-04 19:23 | 50.99085 | 3.22042 | 32982 ft | 451 kts | 109° |
| 2026-05-04 19:23 | 50.97309 | 3.31587 | 32966 ft | 451 kts | 109° |
| 2026-05-04 19:24 | 50.95524 | 3.41124 | 32965 ft | 451 kts | 109° |
| 2026-05-04 19:24 | 50.93757 | 3.50551 | 32960 ft | 451 kts | 109° |
| 2026-05-04 19:25 | 50.91941 | 3.60155 | 32967 ft | 450 kts | 110° |
| 2026-05-04 19:25 | 50.90129 | 3.69651 | 32958 ft | 450 kts | 110° |
| 2026-05-04 19:26 | 50.88298 | 3.79143 | 32954 ft | 450 kts | 110° |
| 2026-05-04 19:26 | 50.86473 | 3.88544 | 32946 ft | 451 kts | 110° |
| 2026-05-04 19:27 | 50.84611 | 3.98105 | 32963 ft | 451 kts | 110° |
| 2026-05-04 19:27 | 50.82771 | 4.07519 | 32954 ft | 451 kts | 110° |
| 2026-05-04 19:28 | 50.80907 | 4.16985 | 32964 ft | 451 kts | 111° |
| 2026-05-04 19:28 | 50.79034 | 4.26449 | 32950 ft | 451 kts | 111° |
| 2026-05-04 19:29 | 50.77158 | 4.35906 | 32964 ft | 451 kts | 111° |
| 2026-05-04 19:29 | 50.75263 | 4.45361 | 32962 ft | 451 kts | 111° |
| 2026-05-04 19:30 | 50.73371 | 4.54811 | 32961 ft | 452 kts | 111° |
| 2026-05-04 19:30 | 50.71480 | 4.64268 | 32960 ft | 452 kts | 111° |
| 2026-05-04 19:31 | 50.69642 | 4.73750 | 32945 ft | 452 kts | 111° |
| 2026-05-04 19:31 | 50.67813 | 4.83257 | 32951 ft | 453 kts | 111° |
| 2026-05-04 19:32 | 50.65965 | 4.92730 | 32956 ft | 453 kts | 112° |
| 2026-05-04 19:32 | 50.64053 | 5.02179 | 32959 ft | 452 kts | 112° |
| 2026-05-04 19:33 | 50.62092 | 5.11592 | 32957 ft | 452 kts | 112° |
| 2026-05-04 19:33 | 50.60128 | 5.21009 | 32938 ft | 453 kts | 113° |
| 2026-05-04 19:34 | 50.58171 | 5.30427 | 32950 ft | 453 kts | 113° |
| 2026-05-04 19:34 | 50.56207 | 5.39855 | 32955 ft | 453 kts | 113° |
| 2026-05-04 19:35 | 50.54226 | 5.49266 | 32963 ft | 453 kts | 114° |
| 2026-05-04 19:35 | 50.53012 | 5.59052 | 32848 ft | 464 kts | 96° |
| 2026-05-04 19:35 | 50.53187 | 5.64073 | 32039 ft | 471 kts | 86° |
| 2026-05-04 19:36 | 50.53655 | 5.67489 | 31422 ft | 477 kts | 78° |
| 2026-05-04 19:36 | 50.54875 | 5.72381 | 30510 ft | 485 kts | 66° |
| 2026-05-04 19:36 | 50.56488 | 5.77070 | 29477 ft | 489 kts | 65° |
| 2026-05-04 19:36 | 50.58106 | 5.81780 | 28395 ft | 490 kts | 65° |
| 2026-05-04 19:37 | 50.59706 | 5.86503 | 27531 ft | 487 kts | 65° |
| 2026-05-04 19:37 | 50.61277 | 5.91179 | 26844 ft | 479 kts | 65° |
| 2026-05-04 19:37 | 50.62822 | 5.95794 | 26157 ft | 473 kts | 65° |
| 2026-05-04 19:37 | 50.64831 | 6.01798 | 25282 ft | 464 kts | 64° |